createdAt,value
2022-11-30T00:01:48.052Z,11.60
2022-11-30T00:06:56.852Z,12.53
2022-11-30T00:12:00.231Z,12.60
2022-11-30T00:17:05.086Z,11.43
2022-11-30T00:22:08.515Z,11.47
2022-11-30T00:27:11.954Z,12.93
2022-11-30T00:32:16.693Z,10.87
2022-11-30T00:37:21.197Z,11.20
2022-11-30T00:42:24.577Z,10.93
2022-11-30T00:47:29.415Z,11.40
2022-11-30T00:52:32.872Z,11.07
2022-11-30T00:57:36.239Z,11.10
2022-11-30T01:02:41.122Z,10.47
2022-11-30T01:07:44.580Z,11.03
2022-11-30T01:12:48.252Z,10.10
2022-11-30T01:17:53.091Z,10.30
2022-11-30T01:22:56.815Z,9.60
2022-11-30T01:28:00.224Z,8.67
2022-11-30T01:33:06.182Z,10.77
2022-11-30T01:38:09.586Z,9.53
2022-11-30T01:43:13.783Z,10.50
2022-11-30T01:48:18.629Z,9.70
2022-11-30T01:53:22.063Z,10.73
2022-11-30T01:58:28.834Z,9.67
2022-11-30T02:03:40.199Z,10.27
2022-11-30T02:08:43.946Z,8.73
2022-11-30T02:13:59.742Z,8.90
2022-11-30T02:19:19.216Z,9.03
2022-11-30T02:24:52.096Z,8.57
2022-11-30T02:30:03.614Z,8.17
2022-11-30T02:35:10.506Z,8.33
2022-11-30T02:40:18.756Z,7.77
2022-11-30T02:45:30.856Z,7.97
2022-11-30T02:50:40.477Z,8.97
2022-11-30T02:55:44.169Z,7.53
2022-11-30T03:00:49.015Z,7.57
2022-11-30T03:05:53.262Z,6.70
2022-11-30T03:10:56.761Z,7.47
2022-11-30T03:16:07.269Z,6.80
2022-11-30T03:21:12.432Z,7.60
2022-11-30T03:26:15.901Z,6.63
2022-11-30T03:31:20.838Z,7.67
2022-11-30T03:36:24.403Z,8.13
2022-11-30T03:41:28.090Z,7.87
2022-11-30T03:46:34.201Z,8.23
2022-11-30T03:51:37.774Z,8.23
2022-11-30T03:56:41.566Z,9.13
2022-11-30T04:01:46.392Z,8.10
2022-11-30T04:06:49.809Z,7.70
2022-11-30T04:11:53.203Z,8.43
2022-11-30T04:16:57.964Z,8.93
2022-11-30T04:22:01.377Z,9.30
2022-11-30T04:27:04.837Z,9.37
2022-11-30T04:32:09.593Z,9.63
2022-11-30T04:37:13.055Z,8.97
2022-11-30T04:42:16.442Z,9.60
2022-11-30T04:47:21.302Z,9.87
2022-11-30T04:52:24.775Z,8.97
2022-11-30T04:57:28.438Z,9.30
2022-11-30T05:02:33.244Z,9.13
2022-11-30T05:07:36.750Z,9.60
2022-11-30T05:12:40.164Z,10.97
2022-11-30T05:17:44.967Z,10.80
2022-11-30T05:22:50.053Z,10.87
2022-11-30T05:27:53.439Z,10.93
2022-11-30T05:32:58.138Z,10.00
2022-11-30T05:38:01.565Z,10.23
2022-11-30T05:43:06.021Z,10.90
2022-11-30T05:48:10.796Z,11.33
2022-11-30T05:53:14.159Z,11.03
2022-11-30T05:58:17.521Z,10.93
2022-11-30T06:03:22.374Z,10.73
2022-11-30T06:08:26.462Z,10.87
2022-11-30T06:13:31.671Z,10.60
2022-11-30T06:18:37.805Z,11.60
2022-11-30T06:23:41.231Z,10.93
2022-11-30T06:28:48.168Z,12.70
2022-11-30T06:33:53.620Z,10.90
2022-11-30T06:38:57.111Z,10.10
2022-11-30T06:44:00.491Z,9.87
2022-11-30T06:49:05.305Z,10.37
2022-11-30T06:54:09.260Z,10.27
2022-11-30T06:59:12.657Z,10.53
2022-11-30T07:04:17.609Z,10.47
2022-11-30T07:09:21.037Z,9.80
2022-11-30T07:14:25.632Z,9.47
2022-11-30T07:19:30.912Z,9.50
2022-11-30T07:24:51.358Z,19.97
2022-11-30T07:29:54.800Z,10.93
2022-11-30T07:34:59.634Z,10.77
2022-11-30T07:40:03.501Z,10.43
2022-11-30T07:45:08.169Z,9.37
2022-11-30T07:50:13.382Z,9.83
2022-11-30T07:55:16.941Z,10.43
2022-11-30T08:00:20.735Z,10.67
2022-11-30T08:05:25.532Z,9.67
2022-11-30T08:10:28.946Z,9.90
2022-11-30T08:15:33.430Z,9.33
2022-11-30T08:20:38.613Z,9.20
2022-11-30T08:25:41.992Z,9.80
2022-11-30T08:30:45.513Z,10.13
2022-11-30T08:35:50.340Z,10.40
2022-11-30T08:40:58.254Z,10.30
2022-11-30T08:46:08.385Z,10.27
2022-11-30T08:51:26.562Z,10.83
2022-11-30T08:56:30.362Z,10.07
2022-11-30T09:01:33.814Z,11.40
2022-11-30T09:06:39.365Z,11.00
2022-11-30T09:11:42.936Z,10.97
2022-11-30T09:16:46.413Z,10.87
2022-11-30T09:21:52.245Z,11.93
2022-11-30T09:26:57.001Z,12.17
2022-11-30T09:32:00.442Z,11.20
2022-11-30T09:37:05.287Z,10.10
2022-11-30T09:42:26.458Z,11.00
2022-11-30T09:47:59.641Z,11.03
2022-11-30T09:53:11.374Z,10.47
2022-11-30T09:58:26.326Z,9.87
2022-11-30T10:03:29.810Z,9.70
2022-11-30T10:08:50.675Z,8.70
2022-11-30T10:14:10.679Z,8.47
2022-11-30T10:19:25.126Z,8.53
2022-11-30T10:24:41.784Z,8.40
2022-11-30T10:29:45.773Z,8.60
2022-11-30T10:34:52.916Z,8.40
2022-11-30T10:40:04.106Z,8.57
2022-11-30T10:45:11.801Z,8.37
2022-11-30T10:50:17.167Z,8.67
2022-11-30T10:55:25.585Z,9.80
2022-11-30T11:00:29.019Z,9.27
2022-11-30T11:05:33.392Z,8.33
2022-11-30T11:10:45.170Z,8.53
2022-11-30T11:15:58.578Z,9.07
2022-11-30T11:21:06.736Z,8.47
2022-11-30T11:26:19.749Z,8.80
2022-11-30T11:31:36.565Z,9.03
2022-11-30T11:36:40.061Z,9.43
2022-11-30T11:41:44.814Z,8.97
2022-11-30T11:46:56.670Z,8.57
2022-11-30T11:52:04.699Z,8.83
2022-11-30T11:57:11.436Z,9.43
2022-11-30T12:02:28.532Z,9.33
2022-11-30T12:07:38.331Z,9.40
2022-11-30T12:12:47.573Z,9.20
2022-11-30T12:18:01.036Z,9.40
2022-11-30T12:23:26.658Z,9.80
2022-11-30T12:28:40.320Z,10.30
2022-11-30T12:34:02.674Z,9.10
2022-11-30T12:39:09.982Z,10.20
2022-11-30T12:44:35.516Z,10.33
2022-11-30T12:49:59.581Z,9.67
2022-11-30T12:55:12.224Z,8.67
2022-11-30T13:00:22.248Z,8.53
2022-11-30T13:05:31.819Z,10.23
2022-11-30T13:10:41.725Z,9.40
2022-11-30T13:15:49.230Z,10.80
2022-11-30T13:21:01.823Z,9.30
2022-11-30T13:26:21.050Z,9.93
2022-11-30T13:31:29.209Z,9.93
2022-11-30T13:36:36.929Z,10.40
2022-11-30T13:41:41.999Z,10.30
2022-11-30T13:46:53.248Z,10.53
2022-11-30T13:52:21.493Z,10.77
2022-11-30T13:57:59.640Z,11.00
2022-11-30T14:08:49.219Z,10.17
2022-11-30T14:13:52.636Z,10.93
2022-11-30T14:18:58.289Z,10.50
2022-11-30T14:24:07.999Z,11.53
2022-11-30T14:29:18.916Z,12.73
2022-11-30T14:34:27.851Z,11.27
2022-11-30T14:39:35.280Z,10.40
2022-11-30T14:44:42.418Z,11.13
2022-11-30T14:49:52.405Z,12.20
2022-11-30T14:55:05.701Z,12.23
2022-11-30T15:00:18.334Z,11.20
2022-11-30T15:05:27.030Z,11.17
2022-11-30T15:10:34.133Z,12.13
2022-11-30T15:15:41.704Z,10.57
2022-11-30T15:20:55.459Z,9.87
2022-11-30T15:26:02.914Z,11.00
2022-11-30T15:31:09.127Z,11.13
2022-11-30T15:36:31.966Z,12.10
2022-11-30T15:41:37.552Z,12.43
2022-11-30T15:46:46.614Z,11.47
2022-11-30T15:52:04.397Z,12.90
2022-11-30T15:57:09.425Z,12.23
2022-11-30T16:02:32.840Z,11.10
2022-11-30T16:07:40.041Z,11.30
2022-11-30T16:12:44.552Z,10.30
2022-11-30T16:17:48.074Z,9.63
2022-11-30T16:22:53.504Z,10.70
2022-11-30T16:27:57.157Z,10.47
2022-11-30T16:33:00.716Z,9.63
2022-11-30T16:38:05.640Z,9.70
2022-11-30T16:43:11.858Z,10.23
2022-11-30T16:48:15.577Z,9.60
2022-11-30T16:53:22.775Z,10.03
2022-11-30T16:58:29.483Z,10.20
2022-11-30T17:03:36.645Z,9.57
2022-11-30T17:08:42.078Z,9.63
2022-11-30T17:13:45.669Z,10.37
2022-11-30T17:18:49.088Z,9.57
2022-11-30T17:23:54.173Z,10.50
2022-11-30T17:28:57.640Z,11.00
2022-11-30T17:34:02.701Z,12.03
2022-11-30T17:39:09.162Z,10.77
2022-11-30T17:44:12.711Z,11.60
2022-11-30T17:49:16.200Z,12.53
2022-11-30T17:54:21.323Z,12.73
2022-11-30T17:59:26.117Z,10.17
2022-11-30T18:04:29.519Z,12.53
2022-11-30T18:09:39.394Z,14.03
2022-11-30T18:14:46.959Z,12.73
2022-11-30T18:19:52.593Z,12.93
2022-11-30T18:24:58.028Z,13.87
2022-11-30T18:30:06.001Z,13.23
2022-11-30T18:35:12.214Z,14.70
2022-11-30T18:40:18.058Z,12.80
2022-11-30T18:45:21.490Z,13.20
2022-11-30T18:50:25.211Z,14.00
2022-11-30T18:55:30.265Z,13.70
2022-11-30T19:00:33.741Z,15.07
2022-11-30T19:05:39.870Z,14.30
2022-11-30T19:10:44.922Z,15.73
2022-11-30T19:15:48.598Z,14.13
2022-11-30T19:20:52.249Z,15.53
2022-11-30T19:26:02.574Z,14.80
2022-11-30T19:31:08.712Z,14.13
2022-11-30T19:36:15.328Z,14.33
2022-11-30T19:41:21.970Z,13.80
2022-11-30T19:46:27.038Z,14.97
2022-11-30T19:51:32.112Z,15.20
2022-11-30T19:56:39.135Z,14.07
2022-11-30T20:01:43.574Z,14.47
2022-11-30T20:06:47.481Z,14.47
2022-11-30T20:11:55.213Z,13.27
2022-11-30T20:16:58.812Z,14.20
2022-11-30T20:22:04.980Z,13.13
2022-11-30T20:27:10.022Z,11.63
2022-11-30T20:32:13.689Z,12.20
2022-11-30T20:37:18.138Z,13.07
2022-11-30T20:42:23.118Z,12.57
2022-11-30T20:47:29.829Z,13.07
2022-11-30T20:52:35.574Z,11.80
2022-11-30T20:57:40.890Z,12.33
2022-11-30T21:02:44.485Z,11.67
2022-11-30T21:07:48.671Z,11.80
2022-11-30T21:12:53.898Z,10.23
2022-11-30T21:17:57.433Z,9.83
2022-11-30T21:23:00.881Z,10.00
2022-11-30T21:28:06.312Z,10.13
2022-11-30T21:33:10.111Z,9.77
2022-11-30T21:38:13.779Z,9.03
2022-11-30T21:43:18.911Z,9.00
2022-11-30T21:48:22.384Z,8.40
2022-11-30T21:53:25.994Z,8.27
2022-11-30T21:58:32.078Z,8.30
2022-11-30T22:03:35.650Z,9.03
2022-11-30T22:08:41.000Z,8.77
2022-11-30T22:13:46.800Z,7.73
2022-11-30T22:18:53.123Z,8.97
2022-11-30T22:23:58.117Z,8.63
2022-11-30T22:29:05.734Z,8.60
2022-11-30T22:34:10.278Z,10.43
2022-11-30T22:39:15.422Z,10.57
2022-11-30T22:44:20.695Z,11.67
2022-11-30T22:49:24.867Z,10.87
2022-11-30T22:54:28.392Z,11.33
2022-11-30T22:59:33.250Z,11.07
2022-11-30T23:04:36.912Z,10.87
2022-11-30T23:09:40.456Z,10.63
2022-11-30T23:14:45.757Z,11.40
2022-11-30T23:19:49.681Z,11.20
2022-11-30T23:24:53.287Z,10.53
2022-11-30T23:29:58.439Z,11.23
2022-11-30T23:35:02.049Z,11.83
2022-11-30T23:40:07.886Z,10.37
2022-11-30T23:45:13.660Z,10.23
2022-11-30T23:50:17.305Z,10.47
2022-11-30T23:55:20.797Z,10.73
